sensor_id;sensor_type;location;lat;lon;timestamp;pressure;altitude;pressure_sealevel;temperature;humidity
21520;BME280;10921;53.614;9.882;2022-09-17T00:01:21;100210.16;;;14.20;90.60
21520;BME280;10921;53.614;9.882;2022-09-17T00:03:54;100193.66;;;14.08;91.01
21520;BME280;10921;53.614;9.882;2022-09-17T00:06:23;100219.03;;;14.21;90.55
21520;BME280;10921;53.614;9.882;2022-09-17T00:08:50;100222.38;;;14.23;90.77
21520;BME280;10921;53.614;9.882;2022-09-17T00:11:21;100205.22;;;14.09;91.02
21520;BME280;10921;53.614;9.882;2022-09-17T00:13:49;100202.88;;;14.06;91.09
21520;BME280;10921;53.614;9.882;2022-09-17T00:16:26;100232.09;;;14.24;91.67
21520;BME280;10921;53.614;9.882;2022-09-17T00:18:53;100238.47;;;14.23;91.08
21520;BME280;10921;53.614;9.882;2022-09-17T00:21:20;100233.09;;;14.23;91.10
21520;BME280;10921;53.614;9.882;2022-09-17T00:23:47;100249.03;;;14.24;91.03
21520;BME280;10921;53.614;9.882;2022-09-17T00:26:14;100244.50;;;14.25;90.85
21520;BME280;10921;53.614;9.882;2022-09-17T00:28:41;100229.97;;;14.19;90.52
21520;BME280;10921;53.614;9.882;2022-09-17T00:31:10;100238.94;;;14.26;90.26
21520;BME280;10921;53.614;9.882;2022-09-17T00:33:37;100239.78;;;14.27;90.13
21520;BME280;10921;53.614;9.882;2022-09-17T00:36:04;100234.00;;;14.15;89.77
21520;BME280;10921;53.614;9.882;2022-09-17T00:38:31;100246.16;;;14.26;89.35
21520;BME280;10921;53.614;9.882;2022-09-17T00:40:58;100236.69;;;14.15;88.85
21520;BME280;10921;53.614;9.882;2022-09-17T00:46:03;100239.44;;;14.07;88.19
21520;BME280;10921;53.614;9.882;2022-09-17T00:48:30;100234.78;;;14.01;88.26
21520;BME280;10921;53.614;9.882;2022-09-17T00:50:59;100238.66;;;13.98;88.12
21520;BME280;10921;53.614;9.882;2022-09-17T00:53:27;100222.59;;;13.90;88.14
21520;BME280;10921;53.614;9.882;2022-09-17T00:55:58;100219.66;;;13.85;88.08
21520;BME280;10921;53.614;9.882;2022-09-17T00:58:28;100238.91;;;13.89;87.68
21520;BME280;10921;53.614;9.882;2022-09-17T01:00:55;100241.44;;;13.82;87.49
21520;BME280;10921;53.614;9.882;2022-09-17T01:03:21;100218.59;;;13.63;87.82
21520;BME280;10921;53.614;9.882;2022-09-17T01:05:58;100257.84;;;13.87;88.84
21520;BME280;10921;53.614;9.882;2022-09-17T01:11:18;100251.25;;;13.67;89.17
21520;BME280;10921;53.614;9.882;2022-09-17T01:16:42;100259.63;;;13.72;89.28
21520;BME280;10921;53.614;9.882;2022-09-17T01:19:47;100264.13;;;13.71;89.87
21520;BME280;10921;53.614;9.882;2022-09-17T01:25:59;100253.09;;;13.66;88.92
21520;BME280;10921;53.614;9.882;2022-09-17T01:28:26;100254.09;;;13.65;89.08
21520;BME280;10921;53.614;9.882;2022-09-17T01:36:24;100256.47;;;13.60;88.94
21520;BME280;10921;53.614;9.882;2022-09-17T01:39:16;100254.63;;;13.61;89.11
21520;BME280;10921;53.614;9.882;2022-09-17T01:42:41;100262.97;;;13.66;90.13
21520;BME280;10921;53.614;9.882;2022-09-17T01:45:34;100258.63;;;13.65;90.16
21520;BME280;10921;53.614;9.882;2022-09-17T01:48:07;100262.31;;;13.64;89.70
21520;BME280;10921;53.614;9.882;2022-09-17T01:50:40;100247.13;;;13.56;89.45
21520;BME280;10921;53.614;9.882;2022-09-17T01:53:09;100271.19;;;13.64;88.88
21520;BME280;10921;53.614;9.882;2022-09-17T01:55:38;100216.06;;;13.31;88.95
21520;BME280;10921;53.614;9.882;2022-09-17T01:58:28;100275.38;;;13.67;90.01
21520;BME280;10921;53.614;9.882;2022-09-17T02:01:00;100274.88;;;13.63;88.85
21520;BME280;10921;53.614;9.882;2022-09-17T02:03:34;100263.38;;;13.55;88.97
21520;BME280;10921;53.614;9.882;2022-09-17T02:06:12;100276.06;;;13.61;89.37
21520;BME280;10921;53.614;9.882;2022-09-17T02:08:53;100282.25;;;13.61;89.50
21520;BME280;10921;53.614;9.882;2022-09-17T02:11:22;100270.94;;;13.51;88.51
21520;BME280;10921;53.614;9.882;2022-09-17T02:14:14;100261.38;;;13.49;88.89
21520;BME280;10921;53.614;9.882;2022-09-17T02:16:44;100291.88;;;13.56;88.75
21520;BME280;10921;53.614;9.882;2022-09-17T02:19:31;100226.50;;;13.26;89.86
21520;BME280;10921;53.614;9.882;2022-09-17T02:29:51;100293.00;;;13.61;89.49
21520;BME280;10921;53.614;9.882;2022-09-17T02:32:18;100265.75;;;13.50;89.66
21520;BME280;10921;53.614;9.882;2022-09-17T02:34:45;100245.03;;;13.35;89.66
21520;BME280;10921;53.614;9.882;2022-09-17T02:37:13;100261.38;;;13.49;89.66
21520;BME280;10921;53.614;9.882;2022-09-17T02:39:40;100276.63;;;13.56;89.72
21520;BME280;10921;53.614;9.882;2022-09-17T02:44:45;100292.66;;;13.64;89.80
21520;BME280;10921;53.614;9.882;2022-09-17T02:47:33;100268.41;;;13.50;90.97
21520;BME280;10921;53.614;9.882;2022-09-17T02:50:23;100281.91;;;13.64;90.41
21520;BME280;10921;53.614;9.882;2022-09-17T02:55:37;100285.44;;;13.65;90.37
21520;BME280;10921;53.614;9.882;2022-09-17T02:58:18;100282.59;;;13.66;90.81
21520;BME280;10921;53.614;9.882;2022-09-17T03:00:46;100268.88;;;13.61;89.82
21520;BME280;10921;53.614;9.882;2022-09-17T03:03:20;100276.91;;;13.61;90.18
21520;BME280;10921;53.614;9.882;2022-09-17T03:05:52;100272.75;;;13.59;89.51
21520;BME280;10921;53.614;9.882;2022-09-17T03:08:27;100245.66;;;13.46;90.51
21520;BME280;10921;53.614;9.882;2022-09-17T03:10:54;100251.00;;;13.46;89.75
21520;BME280;10921;53.614;9.882;2022-09-17T03:13:21;100280.25;;;13.63;89.80
21520;BME280;10921;53.614;9.882;2022-09-17T03:15:48;100257.03;;;13.48;89.96
21520;BME280;10921;53.614;9.882;2022-09-17T03:18:14;100280.97;;;13.57;89.78
21520;BME280;10921;53.614;9.882;2022-09-17T03:20:41;100262.56;;;13.46;89.88
21520;BME280;10921;53.614;9.882;2022-09-17T03:23:07;100257.38;;;13.45;89.79
21520;BME280;10921;53.614;9.882;2022-09-17T03:25:34;100290.63;;;13.66;90.04
21520;BME280;10921;53.614;9.882;2022-09-17T03:28:00;100272.56;;;13.60;90.11
21520;BME280;10921;53.614;9.882;2022-09-17T03:30:27;100284.44;;;13.66;90.02
21520;BME280;10921;53.614;9.882;2022-09-17T03:32:53;100258.38;;;13.52;90.16
21520;BME280;10921;53.614;9.882;2022-09-17T03:35:20;100282.63;;;13.58;90.25
21520;BME280;10921;53.614;9.882;2022-09-17T03:37:46;100300.66;;;13.72;89.90
21520;BME280;10921;53.614;9.882;2022-09-17T03:40:12;100290.13;;;13.71;89.82
21520;BME280;10921;53.614;9.882;2022-09-17T03:42:39;100285.94;;;13.68;89.56
21520;BME280;10921;53.614;9.882;2022-09-17T03:45:06;100277.91;;;13.60;89.53
21520;BME280;10921;53.614;9.882;2022-09-17T03:47:33;100276.91;;;13.61;89.41
21520;BME280;10921;53.614;9.882;2022-09-17T03:49:59;100295.81;;;13.68;88.94
21520;BME280;10921;53.614;9.882;2022-09-17T03:52:25;100311.75;;;13.69;89.15
21520;BME280;10921;53.614;9.882;2022-09-17T03:54:52;100292.66;;;13.64;88.94
21520;BME280;10921;53.614;9.882;2022-09-17T03:57:18;100300.03;;;13.62;88.80
21520;BME280;10921;53.614;9.882;2022-09-17T03:59:45;100273.47;;;13.45;88.86
21520;BME280;10921;53.614;9.882;2022-09-17T04:02:11;100276.13;;;13.45;88.23
21520;BME280;10921;53.614;9.882;2022-09-17T04:04:38;100316.09;;;13.62;87.94
21520;BME280;10921;53.614;9.882;2022-09-17T04:07:04;100284.00;;;13.46;87.88
21520;BME280;10921;53.614;9.882;2022-09-17T04:09:31;100304.75;;;13.52;87.87
21520;BME280;10921;53.614;9.882;2022-09-17T04:12:00;100284.56;;;13.42;87.91
21520;BME280;10921;53.614;9.882;2022-09-17T04:14:27;100294.09;;;13.44;88.03
21520;BME280;10921;53.614;9.882;2022-09-17T04:16:53;100307.78;;;13.49;88.14
21520;BME280;10921;53.614;9.882;2022-09-17T04:19:20;100295.13;;;13.35;88.15
21520;BME280;10921;53.614;9.882;2022-09-17T04:21:46;100276.41;;;13.27;88.27
21520;BME280;10921;53.614;9.882;2022-09-17T04:24:13;100306.16;;;13.40;88.55
21520;BME280;10921;53.614;9.882;2022-09-17T04:26:39;100296.16;;;13.26;88.59
21520;BME280;10921;53.614;9.882;2022-09-17T04:29:06;100296.84;;;13.20;88.64
21520;BME280;10921;53.614;9.882;2022-09-17T04:31:32;100309.38;;;13.27;88.83
21520;BME280;10921;53.614;9.882;2022-09-17T04:33:59;100310.72;;;13.23;89.07
21520;BME280;10921;53.614;9.882;2022-09-17T04:36:25;100316.09;;;13.23;88.99
21520;BME280;10921;53.614;9.882;2022-09-17T04:38:52;100314.41;;;13.22;89.16
21520;BME280;10921;53.614;9.882;2022-09-17T04:41:18;100305.72;;;13.12;88.80
21520;BME280;10921;53.614;9.882;2022-09-17T04:43:45;100313.91;;;13.19;89.31
21520;BME280;10921;53.614;9.882;2022-09-17T04:46:12;100301.69;;;13.08;89.33
21520;BME280;10921;53.614;9.882;2022-09-17T04:48:39;100321.94;;;13.19;89.43
21520;BME280;10921;53.614;9.882;2022-09-17T04:51:05;100306.03;;;13.09;89.50
21520;BME280;10921;53.614;9.882;2022-09-17T04:53:32;100307.25;;;12.98;89.71
21520;BME280;10921;53.614;9.882;2022-09-17T04:55:58;100332.31;;;13.14;89.51
21520;BME280;10921;53.614;9.882;2022-09-17T04:58:25;100337.00;;;13.12;89.55
21520;BME280;10921;53.614;9.882;2022-09-17T05:00:51;100344.22;;;13.11;89.29
21520;BME280;10921;53.614;9.882;2022-09-17T05:03:18;100312.59;;;12.98;89.56
21520;BME280;10921;53.614;9.882;2022-09-17T05:05:47;100289.34;;;12.83;89.72
21520;BME280;10921;53.614;9.882;2022-09-17T05:08:13;100325.63;;;13.01;89.70
21520;BME280;10921;53.614;9.882;2022-09-17T05:10:40;100301.06;;;12.82;89.59
21520;BME280;10921;53.614;9.882;2022-09-17T05:13:06;100306.91;;;12.85;89.89
21520;BME280;10921;53.614;9.882;2022-09-17T05:15:33;100327.00;;;12.97;90.10
21520;BME280;10921;53.614;9.882;2022-09-17T05:17:59;100332.00;;;13.00;90.20
21520;BME280;10921;53.614;9.882;2022-09-17T05:20:26;100323.94;;;13.00;90.42
21520;BME280;10921;53.614;9.882;2022-09-17T05:22:52;100313.25;;;12.92;90.48
21520;BME280;10921;53.614;9.882;2022-09-17T05:25:20;100329.31;;;13.00;90.75
21520;BME280;10921;53.614;9.882;2022-09-17T05:27:50;100335.50;;;13.01;90.80
21520;BME280;10921;53.614;9.882;2022-09-17T05:30:17;100337.34;;;13.00;90.91
21520;BME280;10921;53.614;9.882;2022-09-17T05:32:44;100314.59;;;12.88;91.16
21520;BME280;10921;53.614;9.882;2022-09-17T05:35:10;100310.59;;;12.76;91.35
21520;BME280;10921;53.614;9.882;2022-09-17T05:37:37;100347.59;;;12.97;91.53
21520;BME280;10921;53.614;9.882;2022-09-17T05:40:04;100345.53;;;12.99;91.96
21520;BME280;10921;53.614;9.882;2022-09-17T05:42:32;100350.56;;;13.02;91.91
21520;BME280;10921;53.614;9.882;2022-09-17T05:44:59;100348.88;;;13.01;91.83
21520;BME280;10921;53.614;9.882;2022-09-17T05:47:25;100353.91;;;13.04;91.72
21520;BME280;10921;53.614;9.882;2022-09-17T05:49:52;100355.59;;;13.05;91.50
21520;BME280;10921;53.614;9.882;2022-09-17T05:52:18;100366.13;;;13.07;91.54
21520;BME280;10921;53.614;9.882;2022-09-17T05:54:45;100327.16;;;12.88;91.23
21520;BME280;10921;53.614;9.882;2022-09-17T05:57:11;100348.06;;;13.00;91.27
21520;BME280;10921;53.614;9.882;2022-09-17T05:59:38;100353.75;;;13.06;91.35
21520;BME280;10921;53.614;9.882;2022-09-17T06:02:05;100370.16;;;13.11;91.22
21520;BME280;10921;53.614;9.882;2022-09-17T06:04:31;100374.69;;;13.10;90.65
21520;BME280;10921;53.614;9.882;2022-09-17T06:07:03;100333.50;;;12.87;90.89
21520;BME280;10921;53.614;9.882;2022-09-17T06:09:34;100358.44;;;13.03;90.56
21520;BME280;10921;53.614;9.882;2022-09-17T06:12:03;100375.53;;;13.11;90.02
21520;BME280;10921;53.614;9.882;2022-09-17T06:14:30;100371.16;;;13.10;90.31
21520;BME280;10921;53.614;9.882;2022-09-17T06:16:56;100364.63;;;13.04;90.16
21520;BME280;10921;53.614;9.882;2022-09-17T06:19:23;100370.31;;;13.09;89.87
21520;BME280;10921;53.614;9.882;2022-09-17T06:21:49;100373.16;;;13.08;89.81
21520;BME280;10921;53.614;9.882;2022-09-17T06:24:15;100377.84;;;13.06;90.01
21520;BME280;10921;53.614;9.882;2022-09-17T06:26:42;100349.09;;;12.91;90.04
21520;BME280;10921;53.614;9.882;2022-09-17T06:29:08;100336.69;;;12.74;89.52
21520;BME280;10921;53.614;9.882;2022-09-17T06:31:35;100385.56;;;13.00;89.65
21520;BME280;10921;53.614;9.882;2022-09-17T06:34:01;100391.25;;;12.97;89.43
21520;BME280;10921;53.614;9.882;2022-09-17T06:36:28;100358.28;;;12.81;89.34
21520;BME280;10921;53.614;9.882;2022-09-17T06:38:54;100379.88;;;12.95;89.63
21520;BME280;10921;53.614;9.882;2022-09-17T06:41:20;100402.31;;;12.94;90.18
21520;BME280;10921;53.614;9.882;2022-09-17T06:43:47;100390.44;;;12.97;90.01
21520;BME280;10921;53.614;9.882;2022-09-17T06:46:13;100380.88;;;12.94;90.56
21520;BME280;10921;53.614;9.882;2022-09-17T06:48:40;100391.75;;;13.01;90.30
21520;BME280;10921;53.614;9.882;2022-09-17T06:51:09;100388.22;;;13.00;90.66
21520;BME280;10921;53.614;9.882;2022-09-17T06:53:37;100386.56;;;12.99;90.10
21520;BME280;10921;53.614;9.882;2022-09-17T06:56:05;100373.50;;;13.04;89.95
21520;BME280;10921;53.614;9.882;2022-09-17T06:58:33;100388.41;;;13.15;89.59
21520;BME280;10921;53.614;9.882;2022-09-17T07:01:03;100375.53;;;13.19;89.63
21520;BME280;10921;53.614;9.882;2022-09-17T07:03:30;100384.41;;;13.27;88.50
21520;BME280;10921;53.614;9.882;2022-09-17T07:05:57;100382.03;;;13.32;87.33
21520;BME280;10921;53.614;9.882;2022-09-17T07:08:23;100374.66;;;13.34;87.40
21520;BME280;10921;53.614;9.882;2022-09-17T07:10:54;100351.03;;;13.30;88.07
21520;BME280;10921;53.614;9.882;2022-09-17T07:13:22;100399.59;;;13.59;87.46
21520;BME280;10921;53.614;9.882;2022-09-17T07:15:54;100403.72;;;13.70;86.94
21520;BME280;10921;53.614;9.882;2022-09-17T07:18:21;100390.16;;;13.71;85.16
21520;BME280;10921;53.614;9.882;2022-09-17T07:20:58;100394.13;;;13.84;84.35
21520;BME280;10921;53.614;9.882;2022-09-17T07:23:27;100399.81;;;13.89;83.56
21520;BME280;10921;53.614;9.882;2022-09-17T07:25:55;100411.69;;;13.94;83.39
21520;BME280;10921;53.614;9.882;2022-09-17T07:28:23;100396.63;;;13.85;83.11
21520;BME280;10921;53.614;9.882;2022-09-17T07:30:50;100408.97;;;14.02;82.57
21520;BME280;10921;53.614;9.882;2022-09-17T07:33:19;100410.09;;;14.08;82.28
21520;BME280;10921;53.614;9.882;2022-09-17T07:35:54;100413.13;;;14.13;82.50
21520;BME280;10921;53.614;9.882;2022-09-17T07:38:21;100393.22;;;13.99;81.50
21520;BME280;10921;53.614;9.882;2022-09-17T07:41:02;100364.56;;;13.92;81.37
21520;BME280;10921;53.614;9.882;2022-09-17T07:43:32;100405.91;;;14.14;80.50
21520;BME280;10921;53.614;9.882;2022-09-17T07:46:00;100404.41;;;14.11;81.70
21520;BME280;10921;53.614;9.882;2022-09-17T07:48:26;100400.53;;;14.14;82.11
21520;BME280;10921;53.614;9.882;2022-09-17T07:50:54;100405.91;;;14.14;82.46
21520;BME280;10921;53.614;9.882;2022-09-17T07:53:21;100400.38;;;14.15;83.07
21520;BME280;10921;53.614;9.882;2022-09-17T07:55:55;100394.16;;;14.15;82.81
21520;BME280;10921;53.614;9.882;2022-09-17T07:58:26;100342.28;;;13.91;83.20
21520;BME280;10921;53.614;9.882;2022-09-17T08:00:59;100392.91;;;14.25;82.00
21520;BME280;10921;53.614;9.882;2022-09-17T08:03:25;100381.06;;;14.20;82.41
21520;BME280;10921;53.614;9.882;2022-09-17T08:05:52;100381.53;;;14.23;82.64
21520;BME280;10921;53.614;9.882;2022-09-17T08:08:18;100357.78;;;14.12;81.85
21520;BME280;10921;53.614;9.882;2022-09-17T08:10:46;100368.47;;;14.20;80.01
21520;BME280;10921;53.614;9.882;2022-09-17T08:13:13;100387.81;;;14.38;80.39
21520;BME280;10921;53.614;9.882;2022-09-17T08:15:39;100367.09;;;14.24;79.88
21520;BME280;10921;53.614;9.882;2022-09-17T08:18:05;100386.97;;;14.38;78.93
21520;BME280;10921;53.614;9.882;2022-09-17T08:20:32;100384.66;;;14.35;77.64
21520;BME280;10921;53.614;9.882;2022-09-17T08:22:59;100374.28;;;14.32;78.03
21520;BME280;10921;53.614;9.882;2022-09-17T08:25:26;100377.47;;;14.27;78.09
21520;BME280;10921;53.614;9.882;2022-09-17T08:27:54;100378.50;;;14.26;78.43
21520;BME280;10921;53.614;9.882;2022-09-17T08:30:21;100380.69;;;14.23;78.87
21520;BME280;10921;53.614;9.882;2022-09-17T08:32:48;100383.25;;;14.16;78.65
21520;BME280;10921;53.614;9.882;2022-09-17T08:35:15;100381.00;;;14.28;79.66
21520;BME280;10921;53.614;9.882;2022-09-17T08:37:42;100356.31;;;14.32;80.56
21520;BME280;10921;53.614;9.882;2022-09-17T08:40:16;100374.13;;;14.56;80.59
21520;BME280;10921;53.614;9.882;2022-09-17T08:42:52;100365.66;;;14.67;77.35
21520;BME280;10921;53.614;9.882;2022-09-17T08:45:21;100333.50;;;14.59;76.21
21520;BME280;10921;53.614;9.882;2022-09-17T08:47:48;100316.69;;;14.65;75.93
21520;BME280;10921;53.614;9.882;2022-09-17T08:50:35;100368.69;;;15.10;72.72
21520;BME280;10921;53.614;9.882;2022-09-17T08:56:10;100369.81;;;15.30;69.67
21520;BME280;10921;53.614;9.882;2022-09-17T09:01:33;100371.69;;;15.59;69.56
21520;BME280;10921;53.614;9.882;2022-09-17T09:04:28;100389.97;;;15.78;70.10
21520;BME280;10921;53.614;9.882;2022-09-17T09:07:05;100373.09;;;15.85;68.02
21520;BME280;10921;53.614;9.882;2022-09-17T09:09:40;100379.13;;;16.01;65.96
21520;BME280;10921;53.614;9.882;2022-09-17T09:12:21;100392.19;;;16.04;64.83
21520;BME280;10921;53.614;9.882;2022-09-17T09:14:57;100377.25;;;16.02;64.11
21520;BME280;10921;53.614;9.882;2022-09-17T09:17:30;100376.63;;;16.00;64.25
21520;BME280;10921;53.614;9.882;2022-09-17T09:19:58;100374.81;;;16.07;64.65
21520;BME280;10921;53.614;9.882;2022-09-17T09:25:20;100371.44;;;16.34;64.66
21520;BME280;10921;53.614;9.882;2022-09-17T09:30:28;100345.81;;;16.60;61.14
21520;BME280;10921;53.614;9.882;2022-09-17T09:35:29;100371.81;;;17.16;60.26
21520;BME280;10921;53.614;9.882;2022-09-17T09:38:20;100339.75;;;17.28;61.23
21520;BME280;10921;53.614;9.882;2022-09-17T09:40:59;100370.47;;;17.62;59.66
21520;BME280;10921;53.614;9.882;2022-09-17T09:43:42;100354.25;;;17.55;58.19
21520;BME280;10921;53.614;9.882;2022-09-17T09:46:48;100364.19;;;17.89;58.48
21520;BME280;10921;53.614;9.882;2022-09-17T09:57:55;100383.19;;;17.40;61.02
21520;BME280;10921;53.614;9.882;2022-09-17T10:03:05;100351.91;;;17.45;58.19
21520;BME280;10921;53.614;9.882;2022-09-17T10:05:35;100367.31;;;17.58;57.30
21520;BME280;10921;53.614;9.882;2022-09-17T10:08:12;100384.78;;;17.62;58.50
21520;BME280;10921;53.614;9.882;2022-09-17T10:10:53;100374.38;;;17.52;58.25
21520;BME280;10921;53.614;9.882;2022-09-17T10:13:21;100373.66;;;17.44;57.18
21520;BME280;10921;53.614;9.882;2022-09-17T10:15:47;100364.63;;;17.23;57.77
21520;BME280;10921;53.614;9.882;2022-09-17T10:18:17;100362.78;;;17.31;58.99
21520;BME280;10921;53.614;9.882;2022-09-17T10:20:53;100339.19;;;17.05;59.65
21520;BME280;10921;53.614;9.882;2022-09-17T10:23:20;100364.38;;;17.18;60.77
21520;BME280;10921;53.614;9.882;2022-09-17T10:25:48;100352.34;;;16.93;59.75
21520;BME280;10921;53.614;9.882;2022-09-17T10:28:31;100356.38;;;17.04;61.06
21520;BME280;10921;53.614;9.882;2022-09-17T10:31:02;100346.91;;;16.86;61.41
21520;BME280;10921;53.614;9.882;2022-09-17T10:33:37;100350.13;;;16.75;61.12
21520;BME280;10921;53.614;9.882;2022-09-17T10:36:11;100349.66;;;16.72;62.53
21520;BME280;10921;53.614;9.882;2022-09-17T10:38:40;100353.53;;;16.63;60.83
21520;BME280;10921;53.614;9.882;2022-09-17T10:43:35;100349.06;;;16.55;60.98
21520;BME280;10921;53.614;9.882;2022-09-17T10:46:02;100352.59;;;16.56;61.77
21520;BME280;10921;53.614;9.882;2022-09-17T10:48:52;100339.13;;;16.56;62.18
21520;BME280;10921;53.614;9.882;2022-09-17T10:51:23;100315.13;;;16.39;62.99
21520;BME280;10921;53.614;9.882;2022-09-17T10:54:03;100265.22;;;16.15;63.52
21520;BME280;10921;53.614;9.882;2022-09-17T10:56:34;100349.00;;;16.48;63.29
21520;BME280;10921;53.614;9.882;2022-09-17T10:59:32;100327.38;;;16.42;63.22
21520;BME280;10921;53.614;9.882;2022-09-17T11:04:52;100327.06;;;16.51;63.58
21520;BME280;10921;53.614;9.882;2022-09-17T11:11:00;100314.84;;;16.70;64.16
21520;BME280;10921;53.614;9.882;2022-09-17T11:16:18;100287.34;;;16.81;62.35
21520;BME280;10921;53.614;9.882;2022-09-17T11:24:43;100319.72;;;17.72;59.78
21520;BME280;10921;53.614;9.882;2022-09-17T11:30:13;100319.59;;;17.93;58.69
21520;BME280;10921;53.614;9.882;2022-09-17T11:33:06;100322.75;;;18.10;59.48
21520;BME280;10921;53.614;9.882;2022-09-17T11:35:45;100311.13;;;18.09;59.51
21520;BME280;10921;53.614;9.882;2022-09-17T11:41:07;100314.34;;;18.46;59.53
21520;BME280;10921;53.614;9.882;2022-09-17T11:46:23;100301.03;;;18.44;59.12
21520;BME280;10921;53.614;9.882;2022-09-17T11:49:15;100324.78;;;18.62;58.43
21520;BME280;10921;53.614;9.882;2022-09-17T11:51:52;100315.59;;;18.56;58.27
21520;BME280;10921;53.614;9.882;2022-09-17T11:54:26;100329.06;;;18.50;58.62
21520;BME280;10921;53.614;9.882;2022-09-17T11:57:08;100327.00;;;18.32;59.18
21520;BME280;10921;53.614;9.882;2022-09-17T11:59:38;100325.50;;;18.16;59.17
21520;BME280;10921;53.614;9.882;2022-09-17T12:04:44;100314.38;;;17.85;60.46
21520;BME280;10921;53.614;9.882;2022-09-17T12:12:51;100298.81;;;17.93;61.62
21520;BME280;10921;53.614;9.882;2022-09-17T12:15:24;100306.16;;;18.13;60.68
21520;BME280;10921;53.614;9.882;2022-09-17T12:20:58;100292.91;;;18.31;60.06
21520;BME280;10921;53.614;9.882;2022-09-17T12:23:54;100293.13;;;18.49;61.11
21520;BME280;10921;53.614;9.882;2022-09-17T12:30:04;100288.16;;;18.46;61.66
21520;BME280;10921;53.614;9.882;2022-09-17T12:49:06;100237.31;;;19.54;57.99
21520;BME280;10921;53.614;9.882;2022-09-17T12:51:43;100263.81;;;19.83;57.42
21520;BME280;10921;53.614;9.882;2022-09-17T12:54:26;100261.41;;;20.07;57.42
21520;BME280;10921;53.614;9.882;2022-09-17T12:59:30;100247.41;;;20.16;56.13
21520;BME280;10921;53.614;9.882;2022-09-17T13:02:01;100246.41;;;20.35;56.17
21520;BME280;10921;53.614;9.882;2022-09-17T13:04:50;100260.84;;;19.91;58.31
21520;BME280;10921;53.614;9.882;2022-09-17T13:08:02;100238.97;;;19.55;59.70
21520;BME280;10921;53.614;9.882;2022-09-17T13:10:43;100220.41;;;18.81;62.38
21520;BME280;10921;53.614;9.882;2022-09-17T13:13:29;100238.47;;;18.34;63.22
21520;BME280;10921;53.614;9.882;2022-09-17T13:16:31;100257.06;;;17.89;65.60
21520;BME280;10921;53.614;9.882;2022-09-17T13:19:22;100262.88;;;17.39;67.85
21520;BME280;10921;53.614;9.882;2022-09-17T13:21:53;100257.69;;;17.03;69.40
21520;BME280;10921;53.614;9.882;2022-09-17T13:24:22;100269.53;;;16.80;71.75
21520;BME280;10921;53.614;9.882;2022-09-17T13:26:55;100234.63;;;16.44;73.52
21520;BME280;10921;53.614;9.882;2022-09-17T13:32:08;100265.91;;;16.45;76.34
21520;BME280;10921;53.614;9.882;2022-09-17T13:34:35;100275.84;;;16.45;75.09
21520;BME280;10921;53.614;9.882;2022-09-17T13:37:17;100278.53;;;16.45;75.33
21520;BME280;10921;53.614;9.882;2022-09-17T13:39:46;100240.19;;;16.22;75.93
21520;BME280;10921;53.614;9.882;2022-09-17T13:42:30;100271.53;;;16.50;74.08
21520;BME280;10921;53.614;9.882;2022-09-17T13:45:15;100256.69;;;16.33;75.75
21520;BME280;10921;53.614;9.882;2022-09-17T13:47:58;100258.78;;;16.38;76.58
21520;BME280;10921;53.614;9.882;2022-09-17T13:53:25;100266.78;;;16.52;77.21
21520;BME280;10921;53.614;9.882;2022-09-17T13:55:56;100255.69;;;16.62;80.67
21520;BME280;10921;53.614;9.882;2022-09-17T13:58:31;100251.38;;;16.89;79.47
21520;BME280;10921;53.614;9.882;2022-09-17T14:01:02;100237.59;;;17.12;77.30
21520;BME280;10921;53.614;9.882;2022-09-17T14:05:58;100260.81;;;17.47;67.21
21520;BME280;10921;53.614;9.882;2022-09-17T14:08:50;100258.78;;;17.49;65.52
21520;BME280;10921;53.614;9.882;2022-09-17T14:16:44;100262.88;;;17.39;65.04
21520;BME280;10921;53.614;9.882;2022-09-17T14:21:43;100261.59;;;17.35;64.74
21520;BME280;10921;53.614;9.882;2022-09-17T14:30:10;100306.84;;;17.39;63.38
21520;BME280;10921;53.614;9.882;2022-09-17T14:32:51;100282.50;;;16.98;63.59
21520;BME280;10921;53.614;9.882;2022-09-17T14:35:42;100321.44;;;16.89;65.15
21520;BME280;10921;53.614;9.882;2022-09-17T14:41:38;100320.81;;;16.08;69.11
21520;BME280;10921;53.614;9.882;2022-09-17T14:44:08;100332.31;;;15.66;71.97
21520;BME280;10921;53.614;9.882;2022-09-17T14:46:49;100324.94;;;15.31;74.71
21520;BME280;10921;53.614;9.882;2022-09-17T14:49:27;100324.56;;;15.04;76.25
21520;BME280;10921;53.614;9.882;2022-09-17T14:51:55;100315.59;;;14.74;77.09
21520;BME280;10921;53.614;9.882;2022-09-17T14:54:27;100318.38;;;14.66;78.80
21520;BME280;10921;53.614;9.882;2022-09-17T14:57:23;100338.03;;;14.59;79.32
21520;BME280;10921;53.614;9.882;2022-09-17T14:59:53;100331.44;;;14.47;79.82
21520;BME280;10921;53.614;9.882;2022-09-17T15:04:57;100327.91;;;14.38;81.91
21520;BME280;10921;53.614;9.882;2022-09-17T15:07:25;100327.09;;;14.37;82.04
21520;BME280;10921;53.614;9.882;2022-09-17T15:09:51;100332.28;;;14.39;82.54
21520;BME280;10921;53.614;9.882;2022-09-17T15:12:27;100319.09;;;14.29;83.14
21520;BME280;10921;53.614;9.882;2022-09-17T15:14:56;100336.16;;;14.36;83.02
21520;BME280;10921;53.614;9.882;2022-09-17T15:17:23;100338.03;;;14.36;82.95
21520;BME280;10921;53.614;9.882;2022-09-17T15:19:52;100338.03;;;14.36;82.96
21520;BME280;10921;53.614;9.882;2022-09-17T15:22:26;100332.34;;;14.31;82.34
21520;BME280;10921;53.614;9.882;2022-09-17T15:24:58;100334.84;;;14.32;82.04
21520;BME280;10921;53.614;9.882;2022-09-17T15:27:37;100332.53;;;14.29;82.57
21520;BME280;10921;53.614;9.882;2022-09-17T15:30:16;100333.53;;;14.28;83.02
21520;BME280;10921;53.614;9.882;2022-09-17T15:32:58;100336.56;;;14.25;82.68
21520;BME280;10921;53.614;9.882;2022-09-17T15:35:26;100339.22;;;14.33;81.53
21520;BME280;10921;53.614;9.882;2022-09-17T15:37:57;100329.59;;;14.16;81.04